createdAt,value
2022-12-08T00:01:19.519Z,100907.16
2022-12-08T00:03:47.204Z,100903.75
2022-12-08T00:06:43.358Z,100893.59
2022-12-08T00:09:26.808Z,100901.16
2022-12-08T00:12:00.371Z,100889.78
2022-12-08T00:14:36.230Z,100892.16
2022-12-08T00:17:04.602Z,100885.78
2022-12-08T00:19:32.058Z,100885.97
2022-12-08T00:21:59.525Z,100871.38
2022-12-08T00:24:31.418Z,100874.19
2022-12-08T00:26:58.498Z,100863.81
2022-12-08T00:29:25.334Z,100859.81
2022-12-08T00:31:52.836Z,100867.03
2022-12-08T00:34:20.557Z,100858.81
2022-12-08T00:36:47.628Z,100853.03
2022-12-08T00:39:16.676Z,100855.22
2022-12-08T00:42:02.319Z,100857.81
2022-12-08T00:44:29.337Z,100860.22
2022-12-08T00:46:56.187Z,100854.63
2022-12-08T00:49:23.295Z,100858.81
2022-12-08T00:51:50.153Z,100849.44
2022-12-08T00:54:18.024Z,100852.63
2022-12-08T00:56:44.935Z,100851.41
2022-12-08T00:59:11.890Z,100848.66
2022-12-08T01:01:38.835Z,100846.44
2022-12-08T01:04:07.457Z,100845.44
2022-12-08T01:06:35.699Z,100836.47
2022-12-08T01:09:04.932Z,100836.66
2022-12-08T01:11:33.062Z,100835.06
2022-12-08T01:13:59.924Z,100826.25
2022-12-08T01:16:31.001Z,100834.25
2022-12-08T01:18:59.557Z,100820.66
2022-12-08T01:21:27.480Z,100827.66
2022-12-08T01:23:55.518Z,100828.66
2022-12-08T01:26:22.732Z,100829.84
2022-12-08T01:28:49.732Z,100833.25
2022-12-08T01:31:20.164Z,100828.25
2022-12-08T01:33:48.319Z,100828.66
2022-12-08T01:36:25.223Z,100820.25
2022-12-08T01:38:53.624Z,100822.66
2022-12-08T01:41:24.162Z,100823.28
2022-12-08T01:44:14.057Z,100821.06
2022-12-08T01:46:44.796Z,100823.28
2022-12-08T01:49:24.988Z,100820.25
2022-12-08T01:52:02.873Z,100821.47
2022-12-08T01:54:34.647Z,100825.25
2022-12-08T01:57:11.749Z,100814.25
2022-12-08T01:59:49.836Z,100824.44
2022-12-08T02:02:16.861Z,100814.88
2022-12-08T02:04:43.948Z,100815.66
2022-12-08T02:07:14.482Z,100810.06
2022-12-08T02:09:42.782Z,100798.66
2022-12-08T02:12:11.110Z,100798.28
2022-12-08T02:14:38.497Z,100794.47
2022-12-08T02:17:31.935Z,100790.28
2022-12-08T02:20:31.249Z,100795.47
2022-12-08T02:23:08.237Z,100785.06
2022-12-08T02:26:31.778Z,100780.47
2022-12-08T02:29:27.612Z,100778.28
2022-12-08T02:32:12.488Z,100781.88
2022-12-08T02:35:09.379Z,100780.66
2022-12-08T02:38:01.454Z,100768.28
2022-12-08T02:40:37.251Z,100764.06
2022-12-08T02:43:14.413Z,100758.09
2022-12-08T02:45:54.058Z,100755.31
2022-12-08T02:48:21.402Z,100747.69
2022-12-08T02:50:48.444Z,100739.88
2022-12-08T02:55:57.808Z,100735.91
2022-12-08T02:58:43.493Z,100735.50
2022-12-08T03:01:35.549Z,100738.31
2022-12-08T03:04:22.126Z,100735.69
2022-12-08T03:07:02.653Z,100726.28
2022-12-08T03:09:34.052Z,100727.09
2022-12-08T03:12:20.495Z,100724.31
2022-12-08T03:14:53.633Z,100714.91
2022-12-08T03:17:26.139Z,100715.50
2022-12-08T03:19:54.986Z,100717.47
2022-12-08T03:22:25.804Z,100715.69
2022-12-08T03:24:54.664Z,100714.06
2022-12-08T03:27:26.664Z,100703.28
2022-12-08T03:29:55.671Z,100715.47
2022-12-08T03:32:27.515Z,100705.28
2022-12-08T03:34:58.418Z,100696.28
2022-12-08T03:37:27.409Z,100703.28
2022-12-08T03:39:54.604Z,100695.25
2022-12-08T03:42:21.684Z,100697.28
2022-12-08T03:44:48.615Z,100693.47
2022-12-08T03:47:15.456Z,100689.06
2022-12-08T03:49:42.306Z,100681.88
2022-12-08T03:52:09.326Z,100682.06
2022-12-08T03:54:36.396Z,100686.28
2022-12-08T03:57:03.284Z,100675.28
2022-12-08T03:59:30.199Z,100677.47
2022-12-08T04:01:57.206Z,100670.69
2022-12-08T04:04:24.119Z,100672.09
2022-12-08T04:06:51.308Z,100671.66
2022-12-08T04:09:18.374Z,100670.06
2022-12-08T04:11:45.386Z,100663.88
2022-12-08T04:14:12.440Z,100656.69
2022-12-08T04:16:39.463Z,100663.88
2022-12-08T04:19:06.571Z,100651.03
2022-12-08T04:21:33.727Z,100659.84
2022-12-08T04:24:01.494Z,100663.06
2022-12-08T04:26:29.162Z,100652.06
2022-12-08T04:28:56.191Z,100658.66
2022-12-08T04:31:23.121Z,100659.44
2022-12-08T04:33:50.050Z,100653.25
2022-12-08T04:36:17.047Z,100647.03
2022-12-08T04:38:44.124Z,100652.44
2022-12-08T04:41:11.169Z,100643.25
2022-12-08T04:43:38.173Z,100655.25
2022-12-08T04:46:08.930Z,100643.44
2022-12-08T04:48:40.797Z,100649.06
2022-12-08T04:51:16.174Z,100651.44
2022-12-08T04:53:46.695Z,100652.44
2022-12-08T04:56:19.054Z,100645.44
2022-12-08T04:58:46.947Z,100646.03
2022-12-08T05:01:14.422Z,100649.84
2022-12-08T05:03:41.615Z,100651.03
2022-12-08T05:06:12.281Z,100649.63
2022-12-08T05:08:39.361Z,100638.06
2022-12-08T05:11:09.017Z,100639.25
2022-12-08T05:13:35.984Z,100642.84
2022-12-08T05:16:12.569Z,100632.63
2022-12-08T05:18:41.179Z,100636.22
2022-12-08T05:21:08.468Z,100635.00
2022-12-08T05:23:36.003Z,100634.00
2022-12-08T05:26:03.091Z,100634.00
2022-12-08T05:28:41.290Z,100631.03
2022-12-08T05:31:09.314Z,100632.41
2022-12-08T05:33:36.404Z,100631.41
2022-12-08T05:36:03.521Z,100634.00
2022-12-08T05:38:30.846Z,100626.41
2022-12-08T05:40:58.483Z,100633.19
2022-12-08T05:43:25.598Z,100626.19
2022-12-08T05:45:52.818Z,100623.59
2022-12-08T05:48:19.857Z,100628.59
2022-12-08T05:50:48.255Z,100621.38
2022-12-08T05:53:16.747Z,100624.59
2022-12-08T05:55:44.406Z,100622.81
2022-12-08T05:58:15.618Z,100621.78
2022-12-08T06:00:42.578Z,100618.63
2022-12-08T06:03:12.178Z,100619.63
2022-12-08T06:05:41.378Z,100614.44
2022-12-08T06:08:09.216Z,100618.03
2022-12-08T06:10:39.077Z,100613.81
2022-12-08T06:13:06.114Z,100611.59
2022-12-08T06:15:39.702Z,100603.81
2022-12-08T06:18:07.711Z,100610.25
2022-12-08T06:20:35.101Z,100604.03
2022-12-08T06:23:03.357Z,100613.59
2022-12-08T06:25:30.471Z,100613.59
2022-12-08T06:27:57.523Z,100608.59
2022-12-08T06:30:24.471Z,100607.81
2022-12-08T06:32:51.473Z,100614.97
2022-12-08T06:35:18.303Z,100613.38
2022-12-08T06:37:45.140Z,100611.38
2022-12-08T06:40:12.324Z,100617.81
2022-12-08T06:42:45.145Z,100613.19
2022-12-08T06:45:17.730Z,100612.22
2022-12-08T06:47:45.009Z,100610.06
2022-12-08T06:50:13.503Z,100611.06
2022-12-08T06:52:50.828Z,100605.50
2022-12-08T06:55:50.836Z,100609.28
2022-12-08T06:58:10.307Z,100614.69
2022-12-08T07:00:37.650Z,100606.31
2022-12-08T07:03:04.676Z,100614.91
2022-12-08T07:05:31.718Z,100618.34
2022-12-08T07:07:58.832Z,100620.34
2022-12-08T07:10:25.806Z,100615.19
2022-12-08T07:12:52.986Z,100605.63
2022-12-08T07:15:20.004Z,100614.41
2022-12-08T07:17:53.599Z,100615.22
2022-12-08T07:20:23.202Z,100621.41
2022-12-08T07:22:51.548Z,100621.41
2022-12-08T07:25:19.255Z,100625.59
2022-12-08T07:27:46.505Z,100620.38
2022-12-08T07:30:14.006Z,100623.19
2022-12-08T07:32:40.888Z,100620.97
2022-12-08T07:35:08.901Z,100619.56
2022-12-08T07:37:37.561Z,100618.56
2022-12-08T07:40:06.886Z,100610.78
2022-12-08T07:42:34.585Z,100618.16
2022-12-08T07:45:02.196Z,100605.75
2022-12-08T07:47:29.228Z,100602.56
2022-12-08T07:49:56.344Z,100610.94
2022-12-08T07:52:23.334Z,100611.78
2022-12-08T07:54:50.261Z,100607.59
2022-12-08T07:57:17.436Z,100604.41
2022-12-08T07:59:44.393Z,100610.81
2022-12-08T08:02:35.957Z,100617.41
2022-12-08T08:05:03.305Z,100603.00
2022-12-08T08:08:00.265Z,100606.41
2022-12-08T08:10:24.586Z,100614.81
2022-12-08T08:14:45.554Z,100613.63
2022-12-08T08:17:19.684Z,100609.00
2022-12-08T08:19:47.563Z,100615.38
2022-12-08T08:22:20.276Z,100613.59
2022-12-08T08:24:55.624Z,100609.97
2022-12-08T08:27:23.042Z,100624.78
2022-12-08T08:29:50.090Z,100617.78
2022-12-08T08:32:17.157Z,100620.34
2022-12-08T08:34:44.031Z,100622.34
2022-12-08T08:37:11.011Z,100620.72
2022-12-08T08:39:38.097Z,100622.72
2022-12-08T08:42:05.255Z,100622.28
2022-12-08T08:44:32.350Z,100615.09
2022-12-08T08:46:59.380Z,100606.47
2022-12-08T08:49:26.590Z,100618.63
2022-12-08T08:51:53.536Z,100613.59
2022-12-08T08:54:20.394Z,100614.56
2022-12-08T08:56:48.204Z,100613.59
2022-12-08T08:59:15.268Z,100616.53
2022-12-08T09:01:42.218Z,100615.91
2022-12-08T09:04:10.114Z,100619.00
2022-12-08T09:06:37.319Z,100611.00
2022-12-08T09:09:05.417Z,100619.97
2022-12-08T09:11:33.046Z,100617.59
2022-12-08T09:13:59.965Z,100623.44
2022-12-08T09:16:27.198Z,100620.19
2022-12-08T09:18:54.249Z,100623.59
2022-12-08T09:21:25.723Z,100627.22
2022-12-08T09:23:56.125Z,100621.84
2022-12-08T09:26:24.741Z,100625.78
2022-12-08T09:28:53.964Z,100615.78
2022-12-08T09:31:22.829Z,100630.84
2022-12-08T09:33:53.640Z,100624.69
2022-12-08T09:36:20.793Z,100630.06
2022-12-08T09:38:49.080Z,100628.09
2022-12-08T09:41:40.224Z,100625.84
2022-12-08T09:44:25.450Z,100630.06
2022-12-08T09:46:54.467Z,100625.22
2022-12-08T09:49:35.424Z,100618.84
2022-12-08T09:52:04.326Z,100613.41
2022-12-08T09:54:35.847Z,100608.16
2022-12-08T09:57:13.136Z,100619.38
2022-12-08T09:59:41.281Z,100605.16
2022-12-08T10:02:24.382Z,100613.13
2022-12-08T10:04:55.292Z,100612.16
2022-12-08T10:07:22.533Z,100612.47
2022-12-08T10:10:07.987Z,100610.84
2022-12-08T10:12:51.905Z,100612.47
2022-12-08T10:15:39.798Z,100599.63
2022-12-08T10:18:17.900Z,100607.28
2022-12-08T10:20:48.411Z,100604.38
2022-12-08T10:23:32.908Z,100591.38
2022-12-08T10:26:12.427Z,100596.13
2022-12-08T10:28:44.729Z,100589.31
2022-12-08T10:31:24.551Z,100591.16
2022-12-08T10:33:59.984Z,100588.50
2022-12-08T10:36:52.246Z,100588.78
2022-12-08T10:39:33.094Z,100592.53
2022-12-08T10:42:04.187Z,100588.97
2022-12-08T10:44:31.104Z,100592.78
2022-12-08T10:46:58.478Z,100591.78
2022-12-08T10:49:32.251Z,100588.59
2022-12-08T10:51:59.395Z,100589.56
2022-12-08T10:54:33.495Z,100589.41
2022-12-08T10:57:00.676Z,100591.72
2022-12-08T10:59:27.944Z,100588.56
2022-12-08T11:01:57.083Z,100592.53
2022-12-08T11:04:42.187Z,100587.50
2022-12-08T11:07:13.655Z,100580.31
2022-12-08T11:09:49.408Z,100592.13
2022-12-08T11:12:19.422Z,100585.16
2022-12-08T11:14:56.131Z,100578.53
2022-12-08T11:17:22.927Z,100577.94
2022-12-08T11:20:18.939Z,100577.81
2022-12-08T11:22:54.974Z,100576.75
2022-12-08T11:25:27.609Z,100569.06
2022-12-08T11:27:59.993Z,100586.31
2022-12-08T11:30:47.539Z,100569.00
2022-12-08T11:33:23.521Z,100568.66
2022-12-08T11:36:03.600Z,100563.06
2022-12-08T11:38:33.755Z,100559.44
2022-12-08T11:41:14.174Z,100565.53
2022-12-08T11:44:01.110Z,100559.66
2022-12-08T11:46:36.764Z,100555.75
2022-12-08T11:49:13.097Z,100551.81
2022-12-08T11:51:40.070Z,100553.06
2022-12-08T11:54:24.138Z,100552.16
2022-12-08T11:56:57.366Z,100555.44
2022-12-08T11:59:32.243Z,100555.94
2022-12-08T12:02:02.617Z,100551.44
2022-12-08T12:04:47.464Z,100552.38
2022-12-08T12:07:42.325Z,100545.69
2022-12-08T12:10:21.255Z,100554.16
2022-12-08T12:13:25.230Z,100550.84
2022-12-08T12:16:39.219Z,100541.47
2022-12-08T12:19:14.653Z,100542.44
2022-12-08T12:21:52.903Z,100545.50
2022-12-08T12:24:35.546Z,100536.63
2022-12-08T12:27:07.840Z,100535.41
2022-12-08T12:29:39.182Z,100534.78
2022-12-08T12:32:10.020Z,100534.03
2022-12-08T12:34:48.982Z,100537.38
2022-12-08T12:37:25.324Z,100538.31
2022-12-08T12:39:52.422Z,100534.44
2022-12-08T12:43:09.662Z,100534.97
2022-12-08T12:45:43.372Z,100533.16
2022-12-08T12:48:22.433Z,100524.06
2022-12-08T12:50:55.058Z,100529.72
2022-12-08T12:53:21.895Z,100526.56
2022-12-08T12:56:03.839Z,100526.53
2022-12-08T12:58:30.860Z,100524.03
2022-12-08T13:01:12.962Z,100524.63
2022-12-08T13:03:51.837Z,100526.00
2022-12-08T13:06:32.316Z,100522.69
2022-12-08T13:09:00.428Z,100528.84
2022-12-08T13:11:27.663Z,100527.69
2022-12-08T13:14:04.671Z,100519.47
2022-12-08T13:16:39.885Z,100519.94
2022-12-08T13:19:16.117Z,100513.00
2022-12-08T13:21:43.016Z,100515.97
2022-12-08T13:24:30.803Z,100511.91
2022-12-08T13:27:03.908Z,100514.50
2022-12-08T13:29:32.696Z,100507.47
2022-12-08T13:32:04.922Z,100513.97
2022-12-08T13:34:54.881Z,100510.38
2022-12-08T13:37:50.716Z,100513.97
2022-12-08T13:40:27.339Z,100512.34
2022-12-08T13:43:16.254Z,100504.59
2022-12-08T13:46:48.662Z,100512.16
2022-12-08T13:57:36.707Z,100499.47
2022-12-08T14:00:16.093Z,100495.22
2022-12-08T14:02:49.337Z,100492.38
2022-12-08T14:05:34.683Z,100485.47
2022-12-08T14:08:36.301Z,100482.69
2022-12-08T14:11:33.535Z,100491.03
2022-12-08T14:14:45.832Z,100487.53
2022-12-08T14:17:15.536Z,100476.84
2022-12-08T14:19:44.884Z,100490.59
2022-12-08T14:22:15.776Z,100481.38
2022-12-08T14:24:47.841Z,100485.81
2022-12-08T14:27:24.096Z,100492.25
2022-12-08T14:29:59.959Z,100495.88
2022-12-08T14:32:34.098Z,100491.69
2022-12-08T14:35:06.721Z,100493.91
2022-12-08T14:37:42.422Z,100493.50
2022-12-08T14:40:22.711Z,100491.53
2022-12-08T14:43:07.909Z,100489.53
2022-12-08T14:45:47.123Z,100487.75
2022-12-08T14:48:39.024Z,100491.34
2022-12-08T14:51:08.842Z,100487.47
2022-12-08T14:53:40.243Z,100479.50
2022-12-08T14:56:31.537Z,100482.31
2022-12-08T14:59:16.367Z,100471.69
2022-12-08T15:01:45.112Z,100476.66
2022-12-08T15:04:12.021Z,100473.44
2022-12-08T15:07:00.566Z,100468.69
2022-12-08T15:09:35.207Z,100466.66
2022-12-08T15:12:05.004Z,100477.06
2022-12-08T15:14:34.703Z,100475.47
2022-12-08T15:17:01.740Z,100476.34
2022-12-08T15:19:31.651Z,100480.16
2022-12-08T15:22:13.597Z,100486.88
2022-12-08T15:24:40.640Z,100485.09
2022-12-08T15:27:10.627Z,100490.06
2022-12-08T15:29:37.690Z,100498.28
2022-12-08T15:32:05.896Z,100497.91
2022-12-08T15:34:32.910Z,100493.56
2022-12-08T15:36:59.797Z,100499.50
2022-12-08T15:39:39.236Z,100497.91
2022-12-08T15:42:14.911Z,100493.94
2022-12-08T15:44:41.928Z,100494.13
2022-12-08T15:47:19.806Z,100495.53
2022-12-08T15:49:49.481Z,100499.72
2022-12-08T15:52:20.854Z,100503.34
2022-12-08T15:54:49.015Z,100502.72
2022-12-08T15:57:53.557Z,100514.69
2022-12-08T16:00:51.763Z,100503.69
2022-12-08T16:04:09.006Z,100506.66
2022-12-08T16:09:13.588Z,100500.69
2022-12-08T16:12:08.874Z,100503.91
2022-12-08T16:17:27.240Z,100509.09
2022-12-08T16:19:55.150Z,100506.66
2022-12-08T16:25:18.668Z,100501.53
2022-12-08T16:30:33.954Z,100500.09
2022-12-08T16:33:01.065Z,100493.94
2022-12-08T16:35:27.977Z,100503.56
2022-12-08T16:37:55.107Z,100499.31
2022-12-08T16:40:22.063Z,100504.34
2022-12-08T16:42:50.295Z,100502.72
2022-12-08T16:45:24.873Z,100504.34
2022-12-08T16:47:55.011Z,100500.34
2022-12-08T16:50:28.716Z,100498.94
2022-12-08T16:52:59.417Z,100506.50
2022-12-08T16:55:27.406Z,100502.72
2022-12-08T16:57:55.186Z,100513.56
2022-12-08T17:00:24.925Z,100505.59
2022-12-08T17:02:53.321Z,100507.97
2022-12-08T17:05:22.318Z,100504.59
2022-12-08T17:07:51.289Z,100504.41
2022-12-08T17:10:23.033Z,100506.00
2022-12-08T17:12:51.359Z,100510.06
2022-12-08T17:15:21.575Z,100504.00
2022-12-08T17:17:48.896Z,100506.66
2022-12-08T17:20:20.037Z,100503.09
2022-12-08T17:22:47.477Z,100514.28
2022-12-08T17:25:15.500Z,100511.28
2022-12-08T17:27:42.782Z,100509.31
2022-12-08T17:30:14.876Z,100506.19
2022-12-08T17:32:43.021Z,100500.44
2022-12-08T17:35:14.236Z,100506.63
2022-12-08T17:37:42.912Z,100508.03
2022-12-08T17:40:12.756Z,100493.50
2022-12-08T17:42:42.811Z,100499.91
2022-12-08T17:45:10.219Z,100499.94
2022-12-08T17:47:37.291Z,100504.75
2022-12-08T17:50:06.405Z,100506.56
2022-12-08T17:52:34.019Z,100510.75
2022-12-08T17:55:00.889Z,100509.91
2022-12-08T17:57:27.797Z,100511.28
2022-12-08T17:59:54.701Z,100514.31
2022-12-08T18:02:21.788Z,100509.94
2022-12-08T18:04:48.670Z,100513.41
2022-12-08T18:07:15.599Z,100516.25
2022-12-08T18:09:42.456Z,100511.69
2022-12-08T18:12:09.277Z,100513.28
2022-12-08T18:14:36.312Z,100517.72
2022-12-08T18:17:03.515Z,100519.91
2022-12-08T18:19:30.712Z,100515.94
2022-12-08T18:21:57.808Z,100510.56
2022-12-08T18:24:24.915Z,100505.38
2022-12-08T18:26:52.593Z,100499.38
2022-12-08T18:29:20.775Z,100507.38
2022-12-08T18:31:48.033Z,100493.81
2022-12-08T18:34:15.138Z,100503.78
2022-12-08T18:36:42.026Z,100501.38
2022-12-08T18:39:24.422Z,100502.56
2022-12-08T18:41:52.654Z,100500.78
2022-12-08T18:44:20.139Z,100505.97
2022-12-08T18:46:47.778Z,100506.97
2022-12-08T18:49:18.632Z,100513.72
2022-12-08T18:51:46.074Z,100517.53
2022-12-08T18:54:13.784Z,100507.75
2022-12-08T18:56:40.737Z,100513.72
2022-12-08T18:59:11.761Z,100510.75
2022-12-08T19:01:40.644Z,100512.53
2022-12-08T19:04:27.785Z,100513.31
2022-12-08T19:06:55.503Z,100516.91
2022-12-08T19:09:22.831Z,100512.53
2022-12-08T19:11:50.049Z,100513.94
2022-12-08T19:14:18.405Z,100510.16
2022-12-08T19:16:48.175Z,100513.16
2022-12-08T19:19:15.260Z,100519.94
2022-12-08T19:21:46.339Z,100519.91
2022-12-08T19:24:13.744Z,100519.88
2022-12-08T19:26:40.672Z,100518.72
2022-12-08T19:29:07.775Z,100518.91
2022-12-08T19:31:35.227Z,100514.13
2022-12-08T19:34:02.287Z,100499.97
2022-12-08T19:36:35.198Z,100502.38
2022-12-08T19:39:21.730Z,100498.78
2022-12-08T19:42:07.815Z,100500.97
2022-12-08T19:44:52.612Z,100500.00
2022-12-08T19:47:23.698Z,100505.19
2022-12-08T19:49:51.641Z,100505.19
2022-12-08T19:52:18.863Z,100505.75
2022-12-08T19:54:46.384Z,100500.59
2022-12-08T19:57:13.516Z,100500.59
2022-12-08T19:59:40.487Z,100506.19
2022-12-08T20:02:07.541Z,100502.56
2022-12-08T20:04:34.743Z,100514.75
2022-12-08T20:07:02.076Z,100514.16
2022-12-08T20:09:29.019Z,100511.56
2022-12-08T20:11:56.093Z,100515.75
2022-12-08T20:14:23.476Z,100509.75
2022-12-08T20:16:50.744Z,100514.94
2022-12-08T20:19:18.607Z,100511.53
2022-12-08T20:21:45.944Z,100517.09
2022-12-08T20:24:13.033Z,100518.47
2022-12-08T20:26:40.029Z,100513.69
2022-12-08T20:29:07.095Z,100511.88
2022-12-08T20:31:34.341Z,100511.88
2022-12-08T20:34:01.880Z,100511.53
2022-12-08T20:36:29.375Z,100511.94
2022-12-08T20:38:57.435Z,100514.94
2022-12-08T20:41:24.617Z,100504.78
2022-12-08T20:43:52.122Z,100516.53
2022-12-08T20:46:21.082Z,100510.56
2022-12-08T20:48:48.408Z,100515.75
2022-12-08T20:51:18.821Z,100523.53
2022-12-08T20:53:46.451Z,100514.31
2022-12-08T20:56:17.953Z,100514.94
2022-12-08T20:58:45.111Z,100512.94
2022-12-08T21:01:14.993Z,100521.31
2022-12-08T21:03:44.163Z,100515.13
2022-12-08T21:06:12.735Z,100525.09
2022-12-08T21:08:41.885Z,100518.31
2022-12-08T21:11:10.006Z,100518.91
2022-12-08T21:13:37.941Z,100523.69
2022-12-08T21:16:06.008Z,100517.13
2022-12-08T21:18:38.945Z,100519.50
2022-12-08T21:21:10.671Z,100520.28
2022-12-08T21:23:37.557Z,100517.72
2022-12-08T21:26:18.692Z,100517.72
2022-12-08T21:28:46.965Z,100518.50
2022-12-08T21:31:16.489Z,100519.13
2022-12-08T21:33:43.487Z,100515.31
2022-12-08T21:36:13.717Z,100523.09
2022-12-08T21:38:42.670Z,100520.28
2022-12-08T21:41:16.236Z,100524.28
2022-12-08T21:43:43.302Z,100518.47
2022-12-08T21:46:17.187Z,100514.91
2022-12-08T21:48:44.617Z,100517.50
2022-12-08T21:51:11.652Z,100520.50
2022-12-08T21:53:38.630Z,100516.91
2022-12-08T21:56:09.579Z,100515.72
2022-12-08T21:58:36.701Z,100518.47
2022-12-08T22:01:11.897Z,100517.31
2022-12-08T22:03:39.970Z,100512.09
2022-12-08T22:06:13.120Z,100510.91
2022-12-08T22:08:41.233Z,100507.28
2022-12-08T22:11:08.450Z,100509.53
2022-12-08T22:13:36.279Z,100507.13
2022-12-08T22:16:06.158Z,100512.13
2022-12-08T22:18:34.944Z,100521.50
2022-12-08T22:21:07.258Z,100518.09
2022-12-08T22:23:34.604Z,100521.88
2022-12-08T22:26:03.369Z,100533.84
2022-12-08T22:28:33.975Z,100523.69
2022-12-08T22:31:08.204Z,100521.47
2022-12-08T22:33:35.775Z,100512.88
2022-12-08T22:36:10.082Z,100512.47
2022-12-08T22:38:37.957Z,100508.50
2022-12-08T22:41:06.080Z,100513.31
2022-12-08T22:43:34.125Z,100505.72
2022-12-08T22:46:01.620Z,100502.09
2022-12-08T22:48:29.007Z,100503.13
2022-12-08T22:51:00.675Z,100508.31
2022-12-08T22:53:28.612Z,100512.09
2022-12-08T22:55:55.609Z,100508.50
2022-12-08T22:58:22.787Z,100511.69
2022-12-08T23:00:50.508Z,100503.72
2022-12-08T23:03:17.819Z,100502.09
2022-12-08T23:05:45.072Z,100498.53
2022-12-08T23:08:15.958Z,100494.31
2022-12-08T23:10:44.745Z,100495.72
2022-12-08T23:13:14.049Z,100506.13
2022-12-08T23:15:41.351Z,100500.94
2022-12-08T23:18:12.443Z,100505.72
2022-12-08T23:20:39.474Z,100505.69
2022-12-08T23:23:06.935Z,100504.53
2022-12-08T23:25:33.988Z,100515.91
2022-12-08T23:28:01.031Z,100506.50
2022-12-08T23:30:28.159Z,100510.88
2022-12-08T23:32:56.361Z,100499.91
2022-12-08T23:35:23.292Z,100507.50
2022-12-08T23:37:50.365Z,100507.31
2022-12-08T23:40:17.700Z,100508.91
2022-12-08T23:42:44.809Z,100505.28
2022-12-08T23:45:12.049Z,100502.13
2022-12-08T23:47:38.990Z,100504.91
2022-12-08T23:50:07.453Z,100505.69
2022-12-08T23:52:35.371Z,100504.06
2022-12-08T23:55:02.871Z,100500.09
2022-12-08T23:57:30.077Z,100495.69
2022-12-08T23:59:57.127Z,100498.69
